sensor_id;sensor_type;location;lat;lon;timestamp;pressure;altitude;pressure_sealevel;temperature;humidity
73171;BME280;61381;50.118;19.962;2022-08-11T00:04:22;99402.66;;;14.95;69.02
73171;BME280;61381;50.118;19.962;2022-08-11T00:09:35;99400.84;;;14.90;69.18
73171;BME280;61381;50.118;19.962;2022-08-11T00:14:37;99402.00;;;14.84;69.38
73171;BME280;61381;50.118;19.962;2022-08-11T00:19:44;99401.13;;;14.89;69.16
73171;BME280;61381;50.118;19.962;2022-08-11T00:24:46;99405.69;;;14.69;69.86
73171;BME280;61381;50.118;19.962;2022-08-11T00:29:53;99403.06;;;14.59;70.32
73171;BME280;61381;50.118;19.962;2022-08-11T00:34:55;99395.53;;;14.61;70.49
73171;BME280;61381;50.118;19.962;2022-08-11T00:39:57;99400.94;;;14.56;70.54
73171;BME280;61381;50.118;19.962;2022-08-11T00:45:22;99400.38;;;14.64;70.13
73171;BME280;61381;50.118;19.962;2022-08-11T01:28:46;99390.66;;;13.51;76.04
73171;BME280;61381;50.118;19.962;2022-08-11T02:12:30;99390.59;;;13.90;73.85
73171;BME280;61381;50.118;19.962;2022-08-11T02:23:03;99382.47;;;13.61;75.55
73171;BME280;61381;50.118;19.962;2022-08-11T02:28:11;99382.88;;;13.49;76.60
73171;BME280;61381;50.118;19.962;2022-08-11T02:33:23;99386.47;;;13.34;77.28
73171;BME280;61381;50.118;19.962;2022-08-11T02:55:05;99383.72;;;13.40;77.44
73171;BME280;61381;50.118;19.962;2022-08-11T03:00:15;99381.91;;;13.30;78.43
73171;BME280;61381;50.118;19.962;2022-08-11T03:05:26;99386.84;;;13.12;80.05
73171;BME280;61381;50.118;19.962;2022-08-11T03:21:22;99400.00;;;13.14;79.95
73171;BME280;61381;50.118;19.962;2022-08-11T03:26:36;99400.56;;;13.11;81.06
73171;BME280;61381;50.118;19.962;2022-08-11T03:42:32;99396.03;;;13.06;80.70
73171;BME280;61381;50.118;19.962;2022-08-11T04:27:11;99380.25;;;14.27;76.22
73171;BME280;61381;50.118;19.962;2022-08-11T04:53:49;99406.44;;;15.51;70.20
73171;BME280;61381;50.118;19.962;2022-08-11T05:14:49;99406.00;;;20.26;54.39
73171;BME280;61381;50.118;19.962;2022-08-11T05:19:50;99404.03;;;22.38;47.50
73171;BME280;61381;50.118;19.962;2022-08-11T05:24:58;99408.66;;;22.99;46.52
73171;BME280;61381;50.118;19.962;2022-08-11T05:30:05;99406.78;;;23.28;45.26
73171;BME280;61381;50.118;19.962;2022-08-11T05:35:07;99408.91;;;22.57;47.44
73171;BME280;61381;50.118;19.962;2022-08-11T05:40:11;99411.81;;;23.13;45.37
73171;BME280;61381;50.118;19.962;2022-08-11T05:45:14;99428.56;;;24.09;43.47
73171;BME280;61381;50.118;19.962;2022-08-11T05:50:17;99423.84;;;24.26;42.81
73171;BME280;61381;50.118;19.962;2022-08-11T05:55:18;99426.41;;;24.82;42.41
73171;BME280;61381;50.118;19.962;2022-08-11T06:00:19;99427.16;;;25.54;40.80
73171;BME280;61381;50.118;19.962;2022-08-11T06:05:20;99439.22;;;23.98;43.06
73171;BME280;61381;50.118;19.962;2022-08-11T06:10:37;99422.56;;;24.35;42.57
73171;BME280;61381;50.118;19.962;2022-08-11T06:15:44;99433.38;;;22.78;45.28
73171;BME280;61381;50.118;19.962;2022-08-11T06:25:48;99427.59;;;21.42;49.12
73171;BME280;61381;50.118;19.962;2022-08-11T06:30:49;99426.09;;;24.52;41.65
73171;BME280;61381;50.118;19.962;2022-08-11T06:36:01;99424.16;;;26.25;37.83
73171;BME280;61381;50.118;19.962;2022-08-11T06:46:34;99420.00;;;26.34;36.97
73171;BME280;61381;50.118;19.962;2022-08-11T06:51:36;99412.19;;;27.17;36.15
73171;BME280;61381;50.118;19.962;2022-08-11T06:56:38;99417.09;;;26.74;36.34
73171;BME280;61381;50.118;19.962;2022-08-11T07:17:13;99417.31;;;27.49;34.06
73171;BME280;61381;50.118;19.962;2022-08-11T07:22:15;99414.97;;;27.88;32.96
73171;BME280;61381;50.118;19.962;2022-08-11T07:27:19;99405.72;;;27.66;33.96
73171;BME280;61381;50.118;19.962;2022-08-11T07:32:30;99409.44;;;27.85;32.95
73171;BME280;61381;50.118;19.962;2022-08-11T07:37:33;99405.38;;;28.09;33.24
73171;BME280;61381;50.118;19.962;2022-08-11T07:42:34;99404.88;;;29.11;32.05
73171;BME280;61381;50.118;19.962;2022-08-11T07:47:37;99411.66;;;28.06;33.69
73171;BME280;61381;50.118;19.962;2022-08-11T07:52:39;99398.38;;;28.74;31.80
73171;BME280;61381;50.118;19.962;2022-08-11T07:57:40;99391.59;;;29.27;31.42
73171;BME280;61381;50.118;19.962;2022-08-11T08:02:43;99392.81;;;27.74;34.26
73171;BME280;61381;50.118;19.962;2022-08-11T08:07:46;99401.97;;;24.93;39.27
73171;BME280;61381;50.118;19.962;2022-08-11T08:12:47;99408.16;;;24.38;40.88
73171;BME280;61381;50.118;19.962;2022-08-11T08:17:48;99402.97;;;26.75;35.11
73171;BME280;61381;50.118;19.962;2022-08-11T08:22:54;99393.97;;;24.68;40.20
73171;BME280;61381;50.118;19.962;2022-08-11T08:27:57;99385.78;;;26.05;37.80
73171;BME280;61381;50.118;19.962;2022-08-11T08:32:58;99383.16;;;27.94;33.17
73171;BME280;61381;50.118;19.962;2022-08-11T08:37:59;99388.97;;;25.25;36.58
73171;BME280;61381;50.118;19.962;2022-08-11T08:43:07;99393.44;;;23.55;41.41
73171;BME280;61381;50.118;19.962;2022-08-11T08:48:17;99387.88;;;23.23;41.77
73171;BME280;61381;50.118;19.962;2022-08-11T08:53:24;99381.91;;;23.90;42.89
73171;BME280;61381;50.118;19.962;2022-08-11T08:58:26;99369.88;;;28.00;34.86
73171;BME280;61381;50.118;19.962;2022-08-11T09:03:27;99362.66;;;26.60;33.99
73171;BME280;61381;50.118;19.962;2022-08-11T09:08:30;99370.25;;;23.20;41.92
73171;BME280;61381;50.118;19.962;2022-08-11T09:13:33;99367.88;;;22.94;43.81
73171;BME280;61381;50.118;19.962;2022-08-11T09:18:35;99372.81;;;23.29;43.42
73171;BME280;61381;50.118;19.962;2022-08-11T09:23:38;99359.00;;;23.38;43.39
73171;BME280;61381;50.118;19.962;2022-08-11T09:28:42;99357.00;;;23.22;42.84
73171;BME280;61381;50.118;19.962;2022-08-11T09:33:43;99349.25;;;25.00;40.26
73171;BME280;61381;50.118;19.962;2022-08-11T09:38:45;99344.56;;;25.82;35.55
73171;BME280;61381;50.118;19.962;2022-08-11T09:43:47;99346.16;;;25.01;36.18
73171;BME280;61381;50.118;19.962;2022-08-11T09:48:48;99353.56;;;24.14;39.46
73171;BME280;61381;50.118;19.962;2022-08-11T09:53:49;99340.38;;;24.19;39.14
73171;BME280;61381;50.118;19.962;2022-08-11T09:58:50;99339.44;;;24.99;36.58
73171;BME280;61381;50.118;19.962;2022-08-11T10:09:25;99324.75;;;25.50;34.68
73171;BME280;61381;50.118;19.962;2022-08-11T10:14:29;99325.47;;;24.17;36.04
73171;BME280;61381;50.118;19.962;2022-08-11T10:19:32;99317.50;;;23.64;37.46
73171;BME280;61381;50.118;19.962;2022-08-11T10:24:33;99306.13;;;24.10;37.46
73171;BME280;61381;50.118;19.962;2022-08-11T10:29:38;99311.59;;;23.05;39.41
73171;BME280;61381;50.118;19.962;2022-08-11T10:34:40;99300.09;;;23.56;38.40
73171;BME280;61381;50.118;19.962;2022-08-11T10:39:44;99295.19;;;25.20;35.40
73171;BME280;61381;50.118;19.962;2022-08-11T10:44:50;99288.13;;;24.60;37.00
73171;BME280;61381;50.118;19.962;2022-08-11T10:49:52;99283.16;;;23.82;39.37
73171;BME280;61381;50.118;19.962;2022-08-11T10:54:53;99283.41;;;23.61;42.97
73171;BME280;61381;50.118;19.962;2022-08-11T10:59:55;99271.53;;;22.69;45.75
73171;BME280;61381;50.118;19.962;2022-08-11T11:10:05;99276.91;;;22.93;46.57
73171;BME280;61381;50.118;19.962;2022-08-11T11:15:07;99257.09;;;24.20;41.12
73171;BME280;61381;50.118;19.962;2022-08-11T11:20:09;99246.63;;;25.67;36.07
73171;BME280;61381;50.118;19.962;2022-08-11T11:25:45;99250.09;;;26.67;33.87
73171;BME280;61381;50.118;19.962;2022-08-11T11:31:01;99230.38;;;27.33;32.32
73171;BME280;61381;50.118;19.962;2022-08-11T11:41:11;99235.03;;;26.27;33.21
73171;BME280;61381;50.118;19.962;2022-08-11T11:46:13;99230.56;;;26.76;34.23
73171;BME280;61381;50.118;19.962;2022-08-11T11:51:14;99224.75;;;27.63;29.36
73171;BME280;61381;50.118;19.962;2022-08-11T11:56:15;99213.19;;;28.76;29.50
73171;BME280;61381;50.118;19.962;2022-08-11T12:01:17;99194.59;;;27.81;30.09
73171;BME280;61381;50.118;19.962;2022-08-11T12:06:20;99200.06;;;26.24;30.86
73171;BME280;61381;50.118;19.962;2022-08-11T12:11:23;99197.81;;;26.33;31.41
73171;BME280;61381;50.118;19.962;2022-08-11T12:16:25;99190.47;;;28.09;28.29
73171;BME280;61381;50.118;19.962;2022-08-11T12:21:27;99178.06;;;28.58;27.77
73171;BME280;61381;50.118;19.962;2022-08-11T12:26:29;99175.44;;;29.09;28.02
73171;BME280;61381;50.118;19.962;2022-08-11T12:31:32;99201.03;;;26.39;37.28
73171;BME280;61381;50.118;19.962;2022-08-11T12:36:55;99210.72;;;23.00;56.45
73171;BME280;61381;50.118;19.962;2022-08-11T12:41:56;99218.84;;;22.15;60.22
73171;BME280;61381;50.118;19.962;2022-08-11T12:46:58;99266.66;;;21.17;55.45
73171;BME280;61381;50.118;19.962;2022-08-11T12:52:14;99277.19;;;20.13;55.85
73171;BME280;61381;50.118;19.962;2022-08-11T12:57:34;99266.84;;;19.68;62.10
73171;BME280;61381;50.118;19.962;2022-08-11T13:02:36;99271.25;;;18.38;70.54
73171;BME280;61381;50.118;19.962;2022-08-11T13:07:41;99274.66;;;17.09;78.22
73171;BME280;61381;50.118;19.962;2022-08-11T13:12:42;99277.59;;;16.63;80.45
73171;BME280;61381;50.118;19.962;2022-08-11T13:17:43;99287.34;;;16.50;83.25
73171;BME280;61381;50.118;19.962;2022-08-11T13:22:47;99284.16;;;16.20;83.13
73171;BME280;61381;50.118;19.962;2022-08-11T13:27:49;99296.69;;;16.30;85.69
73171;BME280;61381;50.118;19.962;2022-08-11T13:32:51;99298.22;;;16.22;84.76
73171;BME280;61381;50.118;19.962;2022-08-11T13:37:53;99302.19;;;16.25;86.04
73171;BME280;61381;50.118;19.962;2022-08-11T13:42:55;99304.28;;;16.28;85.46
73171;BME280;61381;50.118;19.962;2022-08-11T13:47:58;99304.78;;;16.57;88.00
73171;BME280;61381;50.118;19.962;2022-08-11T13:52:59;99295.03;;;16.56;84.52
73171;BME280;61381;50.118;19.962;2022-08-11T13:58:00;99293.00;;;16.76;84.39
73171;BME280;61381;50.118;19.962;2022-08-11T14:03:04;99290.34;;;16.99;84.48
73171;BME280;61381;50.118;19.962;2022-08-11T14:08:15;99287.50;;;17.04;80.18
73171;BME280;61381;50.118;19.962;2022-08-11T14:13:16;99271.41;;;17.21;77.16
73171;BME280;61381;50.118;19.962;2022-08-11T14:18:19;99269.28;;;17.72;75.34
73171;BME280;61381;50.118;19.962;2022-08-11T14:23:26;99258.63;;;18.42;72.53
73171;BME280;61381;50.118;19.962;2022-08-11T14:28:30;99252.13;;;18.78;69.18
73171;BME280;61381;50.118;19.962;2022-08-11T14:33:34;99242.16;;;19.26;68.35
73171;BME280;61381;50.118;19.962;2022-08-11T14:38:36;99236.72;;;19.73;68.33
73171;BME280;61381;50.118;19.962;2022-08-11T14:43:38;99243.72;;;19.45;66.87
73171;BME280;61381;50.118;19.962;2022-08-11T14:48:39;99240.09;;;19.32;67.82
73171;BME280;61381;50.118;19.962;2022-08-11T14:53:40;99227.16;;;19.29;67.81
73171;BME280;61381;50.118;19.962;2022-08-11T14:58:42;99229.22;;;19.23;69.08
73171;BME280;61381;50.118;19.962;2022-08-11T15:03:44;99234.22;;;19.12;67.82
73171;BME280;61381;50.118;19.962;2022-08-11T15:08:45;99221.91;;;19.15;69.79
73171;BME280;61381;50.118;19.962;2022-08-11T15:13:46;99223.50;;;19.63;69.03
73171;BME280;61381;50.118;19.962;2022-08-11T15:18:46;99223.19;;;20.03;66.44
73171;BME280;61381;50.118;19.962;2022-08-11T15:23:47;99234.63;;;20.18;62.79
73171;BME280;61381;50.118;19.962;2022-08-11T15:28:49;99230.31;;;20.38;57.97
73171;BME280;61381;50.118;19.962;2022-08-11T15:33:55;99218.88;;;20.87;60.27
73171;BME280;61381;50.118;19.962;2022-08-11T15:38:59;99212.69;;;21.44;55.02
73171;BME280;61381;50.118;19.962;2022-08-11T15:44:01;99216.03;;;21.87;53.35
73171;BME280;61381;50.118;19.962;2022-08-11T15:49:14;99223.53;;;21.90;52.93
73171;BME280;61381;50.118;19.962;2022-08-11T15:54:17;99224.19;;;22.12;50.83
73171;BME280;61381;50.118;19.962;2022-08-11T15:59:19;99227.47;;;22.42;51.93
73171;BME280;61381;50.118;19.962;2022-08-11T16:04:23;99214.13;;;23.09;52.03
73171;BME280;61381;50.118;19.962;2022-08-11T16:09:43;99211.59;;;23.04;49.26
73171;BME280;61381;50.118;19.962;2022-08-11T16:14:48;99200.56;;;23.45;51.68
73171;BME280;61381;50.118;19.962;2022-08-11T16:19:52;99204.19;;;23.17;49.28
73171;BME280;61381;50.118;19.962;2022-08-11T16:24:55;99211.22;;;23.18;50.14
73171;BME280;61381;50.118;19.962;2022-08-11T16:29:57;99204.72;;;22.66;53.70
73171;BME280;61381;50.118;19.962;2022-08-11T16:35:14;99207.03;;;21.62;57.67
73171;BME280;61381;50.118;19.962;2022-08-11T16:40:16;99204.63;;;21.02;58.98
73171;BME280;61381;50.118;19.962;2022-08-11T16:45:18;99200.09;;;20.52;60.76
73171;BME280;61381;50.118;19.962;2022-08-11T16:50:20;99202.50;;;20.11;67.67
73171;BME280;61381;50.118;19.962;2022-08-11T16:55:21;99202.44;;;19.04;70.37
73171;BME280;61381;50.118;19.962;2022-08-11T17:00:22;99216.34;;;18.32;73.83
73171;BME280;61381;50.118;19.962;2022-08-11T17:05:24;99213.28;;;18.08;75.27
73171;BME280;61381;50.118;19.962;2022-08-11T17:10:27;99208.56;;;17.82;78.44
73171;BME280;61381;50.118;19.962;2022-08-11T17:15:29;99201.31;;;17.60;80.18
73171;BME280;61381;50.118;19.962;2022-08-11T17:20:31;99202.59;;;17.62;79.00
73171;BME280;61381;50.118;19.962;2022-08-11T17:25:33;99218.72;;;17.68;78.24
73171;BME280;61381;50.118;19.962;2022-08-11T17:30:34;99231.81;;;17.74;76.02
73171;BME280;61381;50.118;19.962;2022-08-11T17:35:37;99217.56;;;17.60;77.46
73171;BME280;61381;50.118;19.962;2022-08-11T17:40:41;99209.34;;;17.42;76.41
73171;BME280;61381;50.118;19.962;2022-08-11T17:45:44;99213.78;;;17.29;76.21
73171;BME280;61381;50.118;19.962;2022-08-11T17:50:47;99226.09;;;17.13;75.77
73171;BME280;61381;50.118;19.962;2022-08-11T17:55:49;99238.47;;;17.05;75.84
73171;BME280;61381;50.118;19.962;2022-08-11T18:00:52;99237.03;;;16.85;77.55
73171;BME280;61381;50.118;19.962;2022-08-11T18:05:54;99235.38;;;16.75;78.61
73171;BME280;61381;50.118;19.962;2022-08-11T18:10:56;99235.88;;;16.77;78.30
73171;BME280;61381;50.118;19.962;2022-08-11T18:15:58;99237.63;;;16.59;77.12
73171;BME280;61381;50.118;19.962;2022-08-11T18:20:59;99246.91;;;16.31;77.99
73171;BME280;61381;50.118;19.962;2022-08-11T18:26:01;99250.72;;;16.30;77.94
73171;BME280;61381;50.118;19.962;2022-08-11T18:31:04;99252.94;;;16.14;78.77
73171;BME280;61381;50.118;19.962;2022-08-11T18:36:10;99249.28;;;15.96;78.78
73171;BME280;61381;50.118;19.962;2022-08-11T18:41:13;99244.84;;;15.86;79.09
73171;BME280;61381;50.118;19.962;2022-08-11T18:46:16;99239.41;;;15.72;79.61
73171;BME280;61381;50.118;19.962;2022-08-11T18:51:18;99243.41;;;15.61;79.32
73171;BME280;61381;50.118;19.962;2022-08-11T18:56:19;99249.19;;;15.54;79.69
73171;BME280;61381;50.118;19.962;2022-08-11T19:01:21;99248.72;;;15.52;79.17
73171;BME280;61381;50.118;19.962;2022-08-11T19:06:23;99247.50;;;15.44;79.44
73171;BME280;61381;50.118;19.962;2022-08-11T19:11:27;99250.06;;;15.36;79.83
73171;BME280;61381;50.118;19.962;2022-08-11T19:16:30;99260.94;;;15.16;80.99
73171;BME280;61381;50.118;19.962;2022-08-11T19:21:31;99257.31;;;15.07;81.90
73171;BME280;61381;50.118;19.962;2022-08-11T19:26:34;99256.28;;;15.03;82.24
73171;BME280;61381;50.118;19.962;2022-08-11T19:31:38;99251.56;;;14.95;82.94
73171;BME280;61381;50.118;19.962;2022-08-11T19:36:40;99243.75;;;14.93;82.84
73171;BME280;61381;50.118;19.962;2022-08-11T19:41:41;99231.81;;;14.80;83.71
73171;BME280;61381;50.118;19.962;2022-08-11T19:46:44;99239.84;;;14.67;83.93
73171;BME280;61381;50.118;19.962;2022-08-11T19:51:45;99234.78;;;14.60;84.54
73171;BME280;61381;50.118;19.962;2022-08-11T19:56:47;99234.88;;;14.55;84.21
73171;BME280;61381;50.118;19.962;2022-08-11T20:01:49;99241.50;;;14.43;84.86
73171;BME280;61381;50.118;19.962;2022-08-11T20:06:52;99234.50;;;14.42;84.62
73171;BME280;61381;50.118;19.962;2022-08-11T20:11:55;99229.69;;;14.39;84.87
73171;BME280;61381;50.118;19.962;2022-08-11T20:16:58;99228.16;;;14.33;85.19
73171;BME280;61381;50.118;19.962;2022-08-11T20:22:00;99228.59;;;14.40;84.76
73171;BME280;61381;50.118;19.962;2022-08-11T20:27:01;99227.44;;;14.47;84.52
73171;BME280;61381;50.118;19.962;2022-08-11T20:32:04;99221.84;;;14.43;84.80
73171;BME280;61381;50.118;19.962;2022-08-11T20:37:06;99233.78;;;14.37;84.62
73171;BME280;61381;50.118;19.962;2022-08-11T20:42:09;99236.53;;;14.32;84.70
73171;BME280;61381;50.118;19.962;2022-08-11T20:47:11;99226.19;;;14.20;85.37
73171;BME280;61381;50.118;19.962;2022-08-11T20:52:14;99235.44;;;14.14;85.32
73171;BME280;61381;50.118;19.962;2022-08-11T20:57:17;99237.88;;;14.10;85.18
73171;BME280;61381;50.118;19.962;2022-08-11T21:02:20;99234.50;;;13.99;84.97
73171;BME280;61381;50.118;19.962;2022-08-11T21:07:24;99240.72;;;14.00;84.99
73171;BME280;61381;50.118;19.962;2022-08-11T21:12:27;99244.28;;;13.95;85.45
73171;BME280;61381;50.118;19.962;2022-08-11T21:17:30;99253.34;;;13.80;86.15
73171;BME280;61381;50.118;19.962;2022-08-11T21:22:37;99255.84;;;13.71;86.80
73171;BME280;61381;50.118;19.962;2022-08-11T21:27:41;99252.47;;;13.61;87.02
73171;BME280;61381;50.118;19.962;2022-08-11T21:32:43;99255.22;;;13.55;87.54
73171;BME280;61381;50.118;19.962;2022-08-11T21:37:44;99252.81;;;13.54;87.74
73171;BME280;61381;50.118;19.962;2022-08-11T21:42:47;99259.06;;;13.44;88.41
73171;BME280;61381;50.118;19.962;2022-08-11T21:47:48;99264.50;;;13.39;88.70
73171;BME280;61381;50.118;19.962;2022-08-11T21:52:50;99268.38;;;13.28;89.33
73171;BME280;61381;50.118;19.962;2022-08-11T21:57:52;99266.75;;;13.27;90.08
73171;BME280;61381;50.118;19.962;2022-08-11T22:02:54;99262.91;;;13.03;90.94
73171;BME280;61381;50.118;19.962;2022-08-11T22:07:56;99268.28;;;12.64;91.58
73171;BME280;61381;50.118;19.962;2022-08-11T22:12:56;99271.63;;;12.45;93.07
73171;BME280;61381;50.118;19.962;2022-08-11T22:17:59;99275.41;;;12.34;94.47
73171;BME280;61381;50.118;19.962;2022-08-11T22:23:01;99272.50;;;12.30;94.55
73171;BME280;61381;50.118;19.962;2022-08-11T22:28:02;99263.44;;;12.16;94.37
73171;BME280;61381;50.118;19.962;2022-08-11T22:33:04;99267.81;;;11.97;95.49
73171;BME280;61381;50.118;19.962;2022-08-11T22:38:05;99261.34;;;11.98;95.66
73171;BME280;61381;50.118;19.962;2022-08-11T22:43:06;99259.16;;;12.05;95.44
73171;BME280;61381;50.118;19.962;2022-08-11T22:48:08;99254.91;;;12.04;95.33
73171;BME280;61381;50.118;19.962;2022-08-11T22:53:10;99254.28;;;12.17;95.14
73171;BME280;61381;50.118;19.962;2022-08-11T22:58:13;99242.84;;;11.96;95.27
73171;BME280;61381;50.118;19.962;2022-08-11T23:03:15;99234.25;;;11.78;95.45
73171;BME280;61381;50.118;19.962;2022-08-11T23:08:17;99244.25;;;11.52;96.62
73171;BME280;61381;50.118;19.962;2022-08-11T23:13:19;99246.41;;;11.55;96.74
73171;BME280;61381;50.118;19.962;2022-08-11T23:18:20;99235.16;;;11.43;96.85
73171;BME280;61381;50.118;19.962;2022-08-11T23:23:21;99237.34;;;11.15;97.77
73171;BME280;61381;50.118;19.962;2022-08-11T23:28:24;99237.34;;;11.15;98.19
73171;BME280;61381;50.118;19.962;2022-08-11T23:33:27;99223.09;;;11.15;98.26
73171;BME280;61381;50.118;19.962;2022-08-11T23:38:30;99223.91;;;11.10;97.88
73171;BME280;61381;50.118;19.962;2022-08-11T23:43:31;99219.09;;;11.07;97.64
73171;BME280;61381;50.118;19.962;2022-08-11T23:48:32;99210.81;;;10.88;97.46
73171;BME280;61381;50.118;19.962;2022-08-11T23:53:36;99211.59;;;10.68;97.80
73171;BME280;61381;50.118;19.962;2022-08-11T23:58:37;99214.28;;;10.68;98.58
